Time;durP1;ratioP1;P1;durP2;ratioP2;P2;SDS_P1;SDS_P2;PMS_P1;PMS_P2;Temp;Humidity;BMP_temperature;BMP_pressure;BME280_temperature;BME280_humidity;BME280_pressure;Samples;Min_cycle;Max_cycle;Signal;HPM_P1;HPM_P2
2023/07/21 00:00:53;;;;;;;;;;;25.30;35.40;;;;;;1567936;74;762;-49
2023/07/21 00:02:55;;;;;;;;;;;25.20;35.30;;;;;;1567393;74;641;-50
2023/07/21 00:04:57;;;;;;;;;;;25.20;35.20;;;;;;1561413;74;775;-50
2023/07/21 00:06:59;;;;;;;;;;;25.20;35.10;;;;;;1575383;74;1333;-50
2023/07/21 00:09:05;;;;;;;;;;;25.20;35.00;;;;;;1570986;74;1942;-50
2023/07/21 00:11:05;;;;;;;;;;;25.20;35.10;;;;;;1567498;74;1756;-49
2023/07/21 00:13:07;;;;;;;;;;;25.20;35.00;;;;;;1568202;74;801;-49
2023/07/21 00:15:10;;;;;;;;;;;25.20;35.00;;;;;;1577002;74;778;-49
2023/07/21 00:17:12;;;;;;;;;;;25.20;35.00;;;;;;1569208;74;785;-50
2023/07/21 00:19:14;;;;;;;;;;;25.20;35.00;;;;;;1562399;74;1160;-49
2023/07/21 00:21:17;;;;;;;;;;;25.20;35.00;;;;;;1574911;74;1510;-48
2023/07/21 00:23:19;;;;;;;;;;;25.20;35.00;;;;;;1573259;74;731;-50
2023/07/21 00:25:21;;;;;;;;;;;25.20;34.90;;;;;;1563863;74;727;-49
2023/07/21 00:27:23;;;;;;;;;;;25.20;34.90;;;;;;1557355;74;1947;-49
2023/07/21 00:29:25;;;;;;;;;;;25.10;34.80;;;;;;1560277;74;1130;-50
2023/07/21 00:31:27;;;;;;;;;;;25.20;34.90;;;;;;1563415;74;687;-48
2023/07/21 00:33:29;;;;;;;;;;;25.20;34.90;;;;;;1559285;74;826;-49
2023/07/21 00:35:34;;;;;;;;;;;25.20;34.90;;;;;;1570929;74;1427;-50
2023/07/21 00:37:35;;;;;;;;;;;25.20;35.00;;;;;;1580269;74;1603;-49
2023/07/21 00:39:37;;;;;;;;;;;25.20;34.90;;;;;;1575163;74;1153;-50
2023/07/21 00:41:40;;;;;;;;;;;25.20;34.90;;;;;;1556559;74;765;-49
2023/07/21 00:43:42;;;;;;;;;;;25.10;34.80;;;;;;1572283;74;719;-49
2023/07/21 00:45:43;;;;;;;;;;;25.20;35.00;;;;;;1570223;74;694;-50
2023/07/21 00:47:45;;;;;;;;;;;25.20;35.10;;;;;;1569567;74;1943;-49
2023/07/21 00:49:47;;;;;;;;;;;25.10;35.10;;;;;;1566468;74;1680;-49
2023/07/21 00:51:49;;;;;;;;;;;25.20;35.10;;;;;;1564936;74;792;-50
2023/07/21 00:53:51;;;;;;;;;;;25.20;35.20;;;;;;1576322;74;761;-49
2023/07/21 00:55:53;;;;;;;;;;;25.10;35.20;;;;;;1569423;74;700;-49
2023/07/21 00:57:55;;;;;;;;;;;25.10;35.10;;;;;;1569423;74;798;-48
2023/07/21 00:59:57;;;;;;;;;;;25.20;35.10;;;;;;1564078;74;1153;-48
2023/07/21 01:01:59;;;;;;;;;;;25.20;35.10;;;;;;1572055;74;1415;-49
2023/07/21 01:04:02;;;;;;;;;;;25.10;35.10;;;;;;1565936;74;662;-49
2023/07/21 01:06:04;;;;;;;;;;;25.10;35.20;;;;;;1566951;74;790;-49
2023/07/21 01:08:07;;;;;;;;;;;25.10;35.10;;;;;;1572352;74;1926;-48
2023/07/21 01:10:10;;;;;;;;;;;25.10;35.20;;;;;;1572589;74;1184;-49
2023/07/21 01:12:13;;;;;;;;;;;25.10;35.10;;;;;;1583156;74;755;-49
2023/07/21 01:14:15;;;;;;;;;;;25.10;35.10;;;;;;1568586;74;645;-49
2023/07/21 01:16:17;;;;;;;;;;;25.10;35.20;;;;;;1565172;74;1529;-49
2023/07/21 01:18:19;;;;;;;;;;;25.10;35.00;;;;;;1567909;74;759;-49
2023/07/21 01:20:22;;;;;;;;;;;25.10;35.00;;;;;;1577868;74;1073;-49
2023/07/21 01:22:25;;;;;;;;;;;25.10;35.00;;;;;;1566193;74;629;-50
2023/07/21 01:24:32;;;;;;;;;;;25.10;35.00;;;;;;1573203;74;744;-48
2023/07/21 01:26:35;;;;;;;;;;;25.10;35.00;;;;;;1570580;74;700;-49
2023/07/21 01:28:38;;;;;;;;;;;25.20;35.00;;;;;;1566474;74;1927;-49
2023/07/21 01:30:40;;;;;;;;;;;25.10;35.10;;;;;;1569527;74;1513;-49
2023/07/21 01:32:43;;;;;;;;;;;25.10;35.00;;;;;;1568601;74;771;-49
2023/07/21 01:34:45;;;;;;;;;;;25.10;35.00;;;;;;1560920;74;814;-49
2023/07/21 01:36:46;;;;;;;;;;;25.10;35.00;;;;;;1570311;74;750;-49
2023/07/21 01:38:48;;;;;;;;;;;25.10;34.90;;;;;;1569956;74;1192;-49
2023/07/21 01:40:50;;;;;;;;;;;25.10;35.00;;;;;;1574890;74;683;-50
2023/07/21 01:42:53;;;;;;;;;;;25.10;35.00;;;;;;1566496;74;811;-49
2023/07/21 01:44:55;;;;;;;;;;;25.10;35.00;;;;;;1562385;74;1550;-49
2023/07/21 01:46:56;;;;;;;;;;;25.10;35.00;;;;;;1571740;74;763;-49
2023/07/21 01:48:58;;;;;;;;;;;25.10;35.00;;;;;;1566263;74;1938;-49
2023/07/21 01:51:00;;;;;;;;;;;25.10;35.00;;;;;;1576344;74;747;-49
2023/07/21 01:53:04;;;;;;;;;;;25.10;35.10;;;;;;1581240;74;784;-48
2023/07/21 01:55:13;;;;;;;;;;;25.10;35.10;;;;;;1566800;74;657;-49
2023/07/21 01:57:17;;;;;;;;;;;25.10;35.20;;;;;;1559368;74;1891;-50
2023/07/21 01:59:19;;;;;;;;;;;25.10;35.30;;;;;;1539116;76;1642;-49
2023/07/21 02:01:21;;;;;;;;;;;25.10;35.30;;;;;;1567317;74;689;-49
2023/07/21 02:03:23;;;;;;;;;;;25.10;35.40;;;;;;1572827;74;796;-49
2023/07/21 02:05:26;;;;;;;;;;;25.10;35.40;;;;;;1576328;74;769;-48
2023/07/21 02:07:28;;;;;;;;;;;25.10;35.50;;;;;;1567025;74;783;-50
2023/07/21 02:09:30;;;;;;;;;;;25.10;35.50;;;;;;1556244;74;1913;-50
2023/07/21 02:11:32;;;;;;;;;;;25.10;35.50;;;;;;1577148;74;752;-50
2023/07/21 02:13:33;;;;;;;;;;;25.10;35.50;;;;;;1557554;74;1518;-49
2023/07/21 02:15:35;;;;;;;;;;;25.10;35.50;;;;;;1568692;74;692;-49
2023/07/21 02:17:38;;;;;;;;;;;25.10;35.60;;;;;;1565944;74;685;-49
2023/07/21 02:19:39;;;;;;;;;;;25.10;35.70;;;;;;1560722;74;1143;-49
2023/07/21 02:21:41;;;;;;;;;;;25.10;35.70;;;;;;1571935;74;837;-48
2023/07/21 02:23:43;;;;;;;;;;;25.10;35.60;;;;;;1573909;74;760;-50
2023/07/21 02:25:45;;;;;;;;;;;25.10;35.60;;;;;;1558357;74;776;-49
2023/07/21 02:27:47;;;;;;;;;;;25.10;35.50;;;;;;1576571;74;1594;-50
2023/07/21 02:29:49;;;;;;;;;;;25.10;35.50;;;;;;1569787;74;1934;-50
2023/07/21 02:31:51;;;;;;;;;;;25.10;35.60;;;;;;1561501;74;692;-49
2023/07/21 02:33:52;;;;;;;;;;;25.10;35.60;;;;;;1564970;74;694;-49
2023/07/21 02:35:54;;;;;;;;;;;25.00;35.60;;;;;;1566800;74;800;-49
2023/07/21 02:38:00;;;;;;;;;;;25.10;35.60;;;;;;1570190;74;868;-48
2023/07/21 02:40:00;;;;;;;;;;;25.10;35.50;;;;;;1572279;74;1948;-50
2023/07/21 02:42:03;;;;;;;;;;;25.10;35.40;;;;;;1558521;74;1576;-49
2023/07/21 02:44:05;;;;;;;;;;;25.10;35.50;;;;;;1572182;74;734;-50
2023/07/21 02:46:06;;;;;;;;;;;25.10;35.40;;;;;;1563466;74;741;-49
2023/07/21 02:48:10;;;;;;;;;;;25.10;35.50;;;;;;1566984;74;686;-48
2023/07/21 02:50:11;;;;;;;;;;;25.00;35.50;;;;;;1544229;74;1975;-48
2023/07/21 02:52:13;;;;;;;;;;;25.00;35.60;;;;;;1551535;75;744;-49
2023/07/21 02:54:15;;;;;;;;;;;25.10;35.60;;;;;;1538712;75;752;-49
2023/07/21 02:56:17;;;;;;;;;;;25.00;35.50;;;;;;1539536;75;1506;-49
2023/07/21 02:58:19;;;;;;;;;;;25.00;35.70;;;;;;1540207;75;915;-49
2023/07/21 03:00:21;;;;;;;;;;;25.00;35.80;;;;;;1534136;75;1154;-48
2023/07/21 03:02:23;;;;;;;;;;;25.00;35.80;;;;;;1533554;75;755;-48
2023/07/21 03:04:25;;;;;;;;;;;25.00;35.90;;;;;;1544555;75;749;-48
2023/07/21 03:06:30;;;;;;;;;;;25.00;35.80;;;;;;1531059;75;747;-49
2023/07/21 03:08:31;;;;;;;;;;;25.00;35.70;;;;;;1536317;75;1916;-48
2023/07/21 03:10:33;;;;;;;;;;;25.00;35.80;;;;;;1546377;75;1120;-50
2023/07/21 03:12:34;;;;;;;;;;;25.00;35.80;;;;;;1539776;75;759;-49
2023/07/21 03:14:36;;;;;;;;;;;25.00;36.00;;;;;;1536222;75;718;-49
2023/07/21 03:16:39;;;;;;;;;;;25.00;36.00;;;;;;1548463;75;657;-49
2023/07/21 03:18:41;;;;;;;;;;;25.00;36.00;;;;;;1537463;75;1160;-49
2023/07/21 03:20:43;;;;;;;;;;;25.00;35.90;;;;;;1526205;75;954;-49
2023/07/21 03:22:45;;;;;;;;;;;25.00;36.00;;;;;;1539517;75;1592;-48
2023/07/21 03:24:47;;;;;;;;;;;25.00;35.90;;;;;;1533135;75;726;-49
2023/07/21 03:26:50;;;;;;;;;;;25.00;35.80;;;;;;1531382;75;699;-50
2023/07/21 03:28:53;;;;;;;;;;;25.00;35.80;;;;;;1538650;75;1917;-49
2023/07/21 03:31:01;;;;;;;;;;;25.00;35.80;;;;;;1530709;75;752;-47
2023/07/21 03:33:03;;;;;;;;;;;25.00;35.80;;;;;;1531333;75;788;-50
2023/07/21 03:35:05;;;;;;;;;;;25.00;35.80;;;;;;1529025;75;778;-49
2023/07/21 03:37:08;;;;;;;;;;;25.00;35.80;;;;;;1539532;75;1519;-50
2023/07/21 03:39:10;;;;;;;;;;;25.00;35.70;;;;;;1533886;75;1135;-49
2023/07/21 03:41:12;;;;;;;;;;;25.00;35.70;;;;;;1529227;75;799;-47
2023/07/21 03:43:15;;;;;;;;;;;24.90;35.70;;;;;;1537967;75;736;-49
2023/07/21 03:45:17;;;;;;;;;;;25.00;35.70;;;;;;1540611;75;679;-50
2023/07/21 03:47:20;;;;;;;;;;;25.00;35.60;;;;;;1544353;75;730;-47
2023/07/21 03:49:22;;;;;;;;;;;25.00;35.60;;;;;;1543825;75;1912;-49
2023/07/21 03:51:24;;;;;;;;;;;25.00;35.60;;;;;;1558189;74;1458;-48
2023/07/21 03:53:26;;;;;;;;;;;25.00;35.60;;;;;;1574475;74;870;-49
2023/07/21 03:55:28;;;;;;;;;;;25.00;35.70;;;;;;1577409;74;753;-50
2023/07/21 03:57:30;;;;;;;;;;;25.00;35.70;;;;;;1564695;74;796;-49
2023/07/21 03:59:32;;;;;;;;;;;25.00;35.70;;;;;;1572112;74;1187;-48
2023/07/21 04:01:34;;;;;;;;;;;25.00;35.60;;;;;;1563179;74;682;-49
2023/07/21 04:03:36;;;;;;;;;;;25.00;35.70;;;;;;1567280;74;815;-49
2023/07/21 04:05:38;;;;;;;;;;;25.00;35.70;;;;;;1566409;74;1389;-48
2023/07/21 04:07:39;;;;;;;;;;;24.90;35.70;;;;;;1576614;74;678;-49
2023/07/21 04:09:41;;;;;;;;;;;25.00;35.80;;;;;;1573552;74;1934;-47
2023/07/21 04:11:43;;;;;;;;;;;24.90;35.70;;;;;;1569783;74;727;-47
2023/07/21 04:13:45;;;;;;;;;;;25.00;35.70;;;;;;1564056;74;717;-49
2023/07/21 04:15:48;;;;;;;;;;;25.00;35.80;;;;;;1559455;74;682;-48
2023/07/21 04:17:50;;;;;;;;;;;25.00;35.90;;;;;;1566610;74;1712;-49
2023/07/21 04:19:52;;;;;;;;;;;25.00;36.00;;;;;;1572491;74;1481;-49
2023/07/21 04:21:54;;;;;;;;;;;24.90;35.90;;;;;;1579155;74;699;-50
2023/07/21 04:23:56;;;;;;;;;;;24.90;36.00;;;;;;1562507;74;794;-46
2023/07/21 04:25:58;;;;;;;;;;;25.00;35.90;;;;;;1566498;74;758;-48
2023/07/21 04:28:00;;;;;;;;;;;25.00;36.00;;;;;;1566307;74;722;-49
2023/07/21 04:30:02;;;;;;;;;;;25.00;36.00;;;;;;1571865;74;1934;-49
2023/07/21 04:32:04;;;;;;;;;;;24.90;36.00;;;;;;1569228;74;669;-48
2023/07/21 04:34:06;;;;;;;;;;;25.00;36.10;;;;;;1574576;74;1521;-49
2023/07/21 04:36:08;;;;;;;;;;;25.00;36.10;;;;;;1564280;74;747;-48
2023/07/21 04:38:10;;;;;;;;;;;24.90;36.00;;;;;;1572633;74;754;-49
2023/07/21 04:40:12;;;;;;;;;;;24.90;36.00;;;;;;1558853;74;1188;-50
2023/07/21 04:42:14;;;;;;;;;;;24.90;36.00;;;;;;1562448;74;776;-49
2023/07/21 04:44:16;;;;;;;;;;;24.90;36.10;;;;;;1561710;74;782;-49
2023/07/21 04:46:18;;;;;;;;;;;24.90;36.30;;;;;;1569651;74;694;-50
2023/07/21 04:48:20;;;;;;;;;;;25.00;36.20;;;;;;1568672;74;1484;-48
2023/07/21 04:50:22;;;;;;;;;;;24.90;36.30;;;;;;1571995;74;1936;-49
2023/07/21 04:52:24;;;;;;;;;;;24.90;36.30;;;;;;1558677;75;1054;-49
2023/07/21 04:54:26;;;;;;;;;;;24.90;36.30;;;;;;1546356;75;725;-49
2023/07/21 04:56:28;;;;;;;;;;;24.90;36.40;;;;;;1553318;75;923;-49
2023/07/21 04:58:30;;;;;;;;;;;24.90;36.30;;;;;;1551906;75;745;-49
2023/07/21 05:00:32;;;;;;;;;;;24.90;36.40;;;;;;1547347;74;1243;-50
2023/07/21 05:02:34;;;;;;;;;;;24.90;36.60;;;;;;1559235;74;1581;-48
2023/07/21 05:04:36;;;;;;;;;;;24.90;36.80;;;;;;1568514;75;800;-50
2023/07/21 05:06:38;;;;;;;;;;;24.80;36.80;;;;;;1556542;75;753;-50
2023/07/21 05:08:40;;;;;;;;;;;24.90;36.80;;;;;;1559869;75;1147;-50
2023/07/21 05:10:41;;;;;;;;;;;24.80;36.70;;;;;;1547383;75;1928;-50
2023/07/21 05:12:43;;;;;;;;;;;25.00;36.80;;;;;;1559032;75;686;-50
2023/07/21 05:14:45;;;;;;;;;;;24.90;36.80;;;;;;1560851;75;701;-50
2023/07/21 05:16:47;;;;;;;;;;;24.90;36.80;;;;;;1544079;75;1558;-49
2023/07/21 05:18:50;;;;;;;;;;;24.90;36.90;;;;;;1552432;75;1130;-48
2023/07/21 05:20:52;;;;;;;;;;;24.90;36.90;;;;;;1548773;75;707;-49
2023/07/21 05:22:54;;;;;;;;;;;24.90;37.00;;;;;;1550246;75;755;-49
2023/07/21 05:24:55;;;;;;;;;;;24.90;37.10;;;;;;1551176;75;775;-50
2023/07/21 05:26:57;;;;;;;;;;;24.90;37.10;;;;;;1554418;74;700;-50
2023/07/21 05:28:59;;;;;;;;;;;24.90;37.10;;;;;;1553197;74;1124;-50
2023/07/21 05:31:01;;;;;;;;;;;24.90;37.30;;;;;;1549407;74;1942;-49
2023/07/21 05:33:03;;;;;;;;;;;24.90;37.60;;;;;;1553580;75;689;-50
2023/07/21 05:35:09;;;;;;;;;;;24.90;37.60;;;;;;1551641;74;732;-49
2023/07/21 05:37:11;;;;;;;;;;;24.90;37.50;;;;;;1550971;75;1553;-49
2023/07/21 05:39:13;;;;;;;;;;;24.90;37.50;;;;;;1559394;74;1118;-50
2023/07/21 05:41:16;;;;;;;;;;;24.80;37.60;;;;;;1553985;74;806;-50
2023/07/21 05:43:18;;;;;;;;;;;24.90;37.80;;;;;;1556659;74;1510;-49
2023/07/21 05:45:20;;;;;;;;;;;24.90;37.80;;;;;;1557237;75;856;-49
2023/07/21 05:47:22;;;;;;;;;;;24.90;37.90;;;;;;1563916;75;735;-48
2023/07/21 05:49:24;;;;;;;;;;;24.90;38.10;;;;;;1552955;75;1951;-49
2023/07/21 05:51:26;;;;;;;;;;;24.90;38.10;;;;;;1549166;75;1108;-49
2023/07/21 05:53:28;;;;;;;;;;;24.90;38.20;;;;;;1527708;75;638;-49
2023/07/21 05:55:30;;;;;;;;;;;24.90;38.50;;;;;;1536605;75;712;-48
2023/07/21 05:57:32;;;;;;;;;;;24.90;38.50;;;;;;1534122;75;1556;-49
2023/07/21 05:59:34;;;;;;;;;;;25.00;38.40;;;;;;1534213;75;1171;-49
2023/07/21 06:01:39;;;;;;;;;;;24.90;38.20;;;;;;1537028;75;738;-49
2023/07/21 06:03:40;;;;;;;;;;;25.00;38.20;;;;;;1536755;75;741;-50
2023/07/21 06:05:43;;;;;;;;;;;24.90;38.10;;;;;;1538324;75;675;-49
2023/07/21 06:07:45;;;;;;;;;;;25.00;38.10;;;;;;1534333;75;746;-49
2023/07/21 06:09:47;;;;;;;;;;;25.00;38.10;;;;;;1532409;75;1941;-48
2023/07/21 06:11:49;;;;;;;;;;;25.00;38.10;;;;;;1536616;75;1485;-49
2023/07/21 06:13:51;;;;;;;;;;;24.90;38.10;;;;;;1544646;75;761;-49
2023/07/21 06:15:53;;;;;;;;;;;24.90;37.90;;;;;;1539906;75;782;-49
2023/07/21 06:17:55;;;;;;;;;;;24.90;38.00;;;;;;1540816;75;764;-49
2023/07/21 06:19:57;;;;;;;;;;;24.90;38.00;;;;;;1532590;75;1139;-50
2023/07/21 06:21:59;;;;;;;;;;;24.90;38.00;;;;;;1542082;75;788;-48
2023/07/21 06:24:00;;;;;;;;;;;24.90;38.00;;;;;;1539191;75;752;-49
2023/07/21 06:26:02;;;;;;;;;;;24.90;38.00;;;;;;1541674;75;1572;-49
2023/07/21 06:28:04;;;;;;;;;;;24.90;38.10;;;;;;1533185;75;743;-49
2023/07/21 06:30:07;;;;;;;;;;;25.00;38.00;;;;;;1538329;75;1955;-49
2023/07/21 06:32:09;;;;;;;;;;;24.90;38.00;;;;;;1539837;75;793;-49
2023/07/21 06:34:11;;;;;;;;;;;24.90;38.10;;;;;;1549073;75;723;-49
2023/07/21 06:36:12;;;;;;;;;;;24.90;38.10;;;;;;1537987;75;754;-48
2023/07/21 06:38:14;;;;;;;;;;;25.00;38.10;;;;;;1535569;75;730;-49
2023/07/21 06:40:17;;;;;;;;;;;25.00;38.20;;;;;;1534856;75;1544;-48
2023/07/21 06:42:19;;;;;;;;;;;24.90;38.20;;;;;;1545313;75;742;-48
2023/07/21 06:44:21;;;;;;;;;;;24.80;38.10;;;;;;1531001;75;736;-48
2023/07/21 06:46:23;;;;;;;;;;;24.90;38.20;;;;;;1528987;75;708;-49
2023/07/21 06:48:24;;;;;;;;;;;24.90;38.20;;;;;;1539594;75;732;-49
2023/07/21 06:50:26;;;;;;;;;;;24.90;38.30;;;;;;1548149;75;1956;-49
2023/07/21 06:52:28;;;;;;;;;;;24.90;38.30;;;;;;1528934;75;1130;-50
2023/07/21 06:54:31;;;;;;;;;;;24.90;38.40;;;;;;1533348;75;1557;-49
2023/07/21 06:56:33;;;;;;;;;;;24.90;38.30;;;;;;1536153;75;753;-50
2023/07/21 06:58:35;;;;;;;;;;;24.90;38.10;;;;;;1541427;75;748;-49
2023/07/21 07:00:36;;;;;;;;;;;24.90;38.00;;;;;;1539413;75;1162;-47
2023/07/21 07:02:38;;;;;;;;;;;24.90;37.80;;;;;;1537455;75;803;-48
2023/07/21 07:04:40;;;;;;;;;;;25.00;37.80;;;;;;1538295;75;690;-49
2023/07/21 07:06:42;;;;;;;;;;;24.90;37.80;;;;;;1536971;75;794;-49
2023/07/21 07:08:44;;;;;;;;;;;25.00;37.90;;;;;;1538222;75;1561;-48
2023/07/21 07:10:49;;;;;;;;;;;24.90;37.80;;;;;;1532016;75;1952;-49
2023/07/21 07:12:51;;;;;;;;;;;24.90;37.80;;;;;;1542478;75;712;-49
2023/07/21 07:14:53;;;;;;;;;;;24.90;37.90;;;;;;1543568;75;699;-50
2023/07/21 07:16:55;;;;;;;;;;;24.90;37.80;;;;;;1534242;75;825;-49
2023/07/21 07:18:57;;;;;;;;;;;24.90;37.90;;;;;;1532971;75;1155;-49
2023/07/21 07:20:59;;;;;;;;;;;25.00;37.90;;;;;;1541465;75;738;-49
2023/07/21 07:23:01;;;;;;;;;;;24.90;37.80;;;;;;1540302;75;1451;-49
2023/07/21 07:25:03;;;;;;;;;;;24.90;37.90;;;;;;1530183;75;688;-50
2023/07/21 07:27:05;;;;;;;;;;;24.90;38.00;;;;;;1542789;75;822;-49
2023/07/21 07:29:07;;;;;;;;;;;24.90;38.10;;;;;;1543011;75;1111;-49
2023/07/21 07:31:09;;;;;;;;;;;24.90;38.10;;;;;;1529693;75;1964;-49
2023/07/21 07:33:11;;;;;;;;;;;24.90;38.20;;;;;;1532908;75;938;-50
2023/07/21 07:35:13;;;;;;;;;;;24.90;38.20;;;;;;1530166;75;769;-50
2023/07/21 07:37:15;;;;;;;;;;;25.00;38.20;;;;;;1527682;75;1579;-49
2023/07/21 07:39:18;;;;;;;;;;;25.00;38.10;;;;;;1538944;75;1151;-49
2023/07/21 07:41:20;;;;;;;;;;;25.00;37.90;;;;;;1540222;75;755;-49
2023/07/21 07:43:22;;;;;;;;;;;25.00;37.80;;;;;;1533884;75;801;-50
2023/07/21 07:45:24;;;;;;;;;;;25.00;37.80;;;;;;1530080;75;754;-50
2023/07/21 07:47:26;;;;;;;;;;;24.90;37.70;;;;;;1536236;75;743;-49
2023/07/21 07:49:28;;;;;;;;;;;25.00;37.60;;;;;;1546985;75;1139;-50
2023/07/21 07:51:30;;;;;;;;;;;25.00;37.60;;;;;;1531287;75;1936;-49
2023/07/21 07:53:33;;;;;;;;;;;24.90;37.70;;;;;;1533885;75;1082;-47
2023/07/21 07:55:38;;;;;;;;;;;25.00;37.70;;;;;;1545645;76;936;-50
2023/07/21 07:57:40;;;;;;;;;;;24.90;37.70;;;;;;1534809;75;725;-50
2023/07/21 07:59:42;;;;;;;;;;;25.00;37.80;;;;;;1529637;75;1183;-48
2023/07/21 08:01:44;;;;;;;;;;;25.00;37.90;;;;;;1539468;75;737;-50
2023/07/21 08:03:46;;;;;;;;;;;25.00;37.80;;;;;;1546861;75;776;-48
2023/07/21 08:05:50;;;;;;;;;;;25.00;37.90;;;;;;1532876;76;1845;-50
2023/07/21 08:07:51;;;;;;;;;;;24.90;37.90;;;;;;1529969;75;1548;-49
2023/07/21 08:09:53;;;;;;;;;;;24.90;38.00;;;;;;1529698;75;1130;-51
2023/07/21 08:11:57;;;;;;;;;;;25.00;38.00;;;;;;1539029;75;1937;-49
2023/07/21 08:13:59;;;;;;;;;;;25.00;38.00;;;;;;1530117;76;761;-49
2023/07/21 08:16:01;;;;;;;;;;;24.90;37.90;;;;;;1534561;76;695;-51
2023/07/21 08:18:03;;;;;;;;;;;25.00;37.80;;;;;;1544052;75;1527;-50
2023/07/21 08:20:05;;;;;;;;;;;24.90;37.20;;;;;;1540494;75;1086;-50
2023/07/21 08:22:07;;;;;;;;;;;24.90;37.40;;;;;;1532312;76;725;-50
2023/07/21 08:24:10;;;;;;;;;;;24.90;37.90;;;;;;1545712;76;756;-50
2023/07/21 08:26:12;;;;;;;;;;;24.80;37.90;;;;;;1538022;75;777;-51
2023/07/21 08:28:14;;;;;;;;;;;24.80;37.90;;;;;;1541494;76;741;-51
2023/07/21 08:30:16;;;;;;;;;;;24.60;38.30;;;;;;1533702;75;1127;-51
2023/07/21 08:32:17;;;;;;;;;;;24.50;38.80;;;;;;1532677;75;1931;-51
2023/07/21 08:34:19;;;;;;;;;;;24.30;39.30;;;;;;1526194;76;785;-49
2023/07/21 08:36:21;;;;;;;;;;;24.30;39.50;;;;;;1530289;75;759;-50
2023/07/21 08:38:23;;;;;;;;;;;24.20;39.40;;;;;;1537301;75;713;-48
2023/07/21 08:40:25;;;;;;;;;;;24.10;39.70;;;;;;1536148;76;1172;-47
2023/07/21 08:42:27;;;;;;;;;;;24.10;39.80;;;;;;1534649;76;756;-50
2023/07/21 08:44:30;;;;;;;;;;;24.10;40.00;;;;;;1542343;75;792;-54
2023/07/21 08:46:32;;;;;;;;;;;24.20;40.00;;;;;;1498895;77;1665;-49
2023/07/21 08:48:34;;;;;;;;;;;24.20;39.90;;;;;;1528871;76;729;-50
2023/07/21 08:50:39;;;;;;;;;;;24.20;39.90;;;;;;1541593;76;1956;-49
2023/07/21 08:52:41;;;;;;;;;;;24.30;40.20;;;;;;1530361;76;729;-49
2023/07/21 08:54:43;;;;;;;;;;;24.30;40.30;;;;;;1564593;74;1071;-49
2023/07/21 08:56:45;;;;;;;;;;;24.30;40.40;;;;;;1557848;74;790;-50
2023/07/21 08:58:47;;;;;;;;;;;24.30;40.60;;;;;;1575942;74;1184;-50
2023/07/21 09:00:49;;;;;;;;;;;24.30;40.80;;;;;;1558834;74;1543;-50
2023/07/21 09:02:53;;;;;;;;;;;24.40;40.90;;;;;;1553181;74;947;-49
2023/07/21 09:04:55;;;;;;;;;;;24.40;41.00;;;;;;1563812;74;801;-50
2023/07/21 09:06:57;;;;;;;;;;;24.40;41.10;;;;;;1540697;75;765;-50
2023/07/21 09:09:00;;;;;;;;;;;24.40;41.50;;;;;;1567801;74;1112;-48
2023/07/21 09:11:03;;;;;;;;;;;24.40;41.50;;;;;;1563863;74;1926;-51
2023/07/21 09:13:04;;;;;;;;;;;24.50;41.60;;;;;;1574023;74;772;-50
2023/07/21 09:15:10;;;;;;;;;;;24.50;41.90;;;;;;1569573;74;1525;-50
2023/07/21 09:17:12;;;;;;;;;;;24.50;42.10;;;;;;1571925;74;766;-48
2023/07/21 09:19:14;;;;;;;;;;;24.50;42.10;;;;;;1562667;74;1141;-51
2023/07/21 09:21:19;;;;;;;;;;;24.50;42.30;;;;;;1540418;76;1163;-50
2023/07/21 09:23:21;;;;;;;;;;;24.60;42.80;;;;;;1568979;74;759;-50
2023/07/21 09:25:24;;;;;;;;;;;24.70;42.60;;;;;;1565218;74;739;-49
2023/07/21 09:27:26;;;;;;;;;;;24.60;43.00;;;;;;1576869;74;753;-49
2023/07/21 09:29:28;;;;;;;;;;;24.60;43.10;;;;;;1565566;74;1518;-49
2023/07/21 09:31:32;;;;;;;;;;;24.70;43.20;;;;;;1564916;74;1973;-49
2023/07/21 09:33:41;;;;;;;;;;;24.70;42.80;;;;;;1573882;74;687;-49
2023/07/21 09:35:40;;;;;;;;;;;24.70;42.70;;;;;;1559210;74;1651;-50
2023/07/21 09:37:42;;;;;;;;;;;24.80;43.70;;;;;;1565442;74;784;-49
2023/07/21 09:39:44;;;;;;;;;;;24.80;43.50;;;;;;1559030;74;1202;-48
2023/07/21 09:41:46;;;;;;;;;;;24.70;43.10;;;;;;1560415;74;789;-50
2023/07/21 09:43:48;;;;;;;;;;;24.70;43.00;;;;;;1570091;74;1592;-48
2023/07/21 09:45:50;;;;;;;;;;;24.80;43.30;;;;;;1567542;74;799;-50
2023/07/21 09:47:52;;;;;;;;;;;24.80;43.00;;;;;;1567798;74;801;-51
2023/07/21 09:49:54;;;;;;;;;;;24.80;43.10;;;;;;1568979;74;1156;-50
2023/07/21 09:51:56;;;;;;;;;;;24.80;42.90;;;;;;1560662;74;1933;-49
2023/07/21 09:53:58;;;;;;;;;;;24.80;43.70;;;;;;1556048;74;1103;-49
2023/07/21 09:56:01;;;;;;;;;;;24.90;43.40;;;;;;1568860;74;764;-48
2023/07/21 09:58:02;;;;;;;;;;;24.80;43.90;;;;;;1520573;77;1516;-50
2023/07/21 10:00:12;;;;;;;;;;;24.80;43.90;;;;;;1514874;77;1268;-49
2023/07/21 10:02:08;;;;;;;;;;;24.80;43.50;;;;;;1549784;75;1435;-49
2023/07/21 10:04:10;;;;;;;;;;;24.90;44.60;;;;;;1549534;74;1205;-51
2023/07/21 10:06:14;;;;;;;;;;;24.90;44.50;;;;;;1546199;74;1082;-50
2023/07/21 10:08:16;;;;;;;;;;;24.90;44.80;;;;;;1561867;74;1530;-48
2023/07/21 10:10:18;;;;;;;;;;;24.90;44.40;;;;;;1553061;74;1451;-48
2023/07/21 10:12:20;;;;;;;;;;;25.00;44.60;;;;;;1557160;74;1953;-49
2023/07/21 10:14:26;;;;;;;;;;;25.00;44.70;;;;;;1551069;74;1479;-51
2023/07/21 10:16:29;;;;;;;;;;;25.00;44.50;;;;;;1549811;74;1524;-47
2023/07/21 10:18:30;;;;;;;;;;;25.00;44.50;;;;;;1553213;74;1475;-48
2023/07/21 10:20:43;;;;;;;;;;;25.00;44.30;;;;;;1547424;74;1594;-51
2023/07/21 10:22:47;;;;;;;;;;;25.00;44.80;;;;;;1553456;74;1516;-48
2023/07/21 10:24:50;;;;;;;;;;;25.00;45.00;;;;;;1558483;74;2076;-50
2023/07/21 10:26:56;;;;;;;;;;;25.00;44.40;;;;;;1552732;74;1532;-50
2023/07/21 10:28:59;;;;;;;;;;;25.10;44.20;;;;;;1551457;74;1536;-48
2023/07/21 10:31:20;;;;;;;;;;;25.10;44.60;;;;;;1552165;74;1912;-51
2023/07/21 10:33:24;;;;;;;;;;;25.10;44.80;;;;;;1545311;74;1549;-50
2023/07/21 10:35:38;;;;;;;;;;;25.10;44.40;;;;;;1548298;74;1738;-49
2023/07/21 10:37:40;;;;;;;;;;;25.20;44.30;;;;;;1559363;74;1465;-48
2023/07/21 10:39:42;;;;;;;;;;;25.10;45.80;;;;;;1551385;74;1528;-50
2023/07/21 10:41:44;;;;;;;;;;;25.20;46.20;;;;;;1559336;74;1453;-50
2023/07/21 10:43:46;;;;;;;;;;;25.30;45.60;;;;;;1547780;74;1472;-51
2023/07/21 10:45:51;;;;;;;;;;;25.30;46.90;;;;;;1558605;74;1461;-50
2023/07/21 10:47:53;;;;;;;;;;;25.20;47.30;;;;;;1557445;74;1419;-49
2023/07/21 10:49:55;;;;;;;;;;;25.30;47.30;;;;;;1552012;74;1472;-49
2023/07/21 10:51:57;;;;;;;;;;;25.20;47.40;;;;;;1549097;74;1932;-49
2023/07/21 10:54:01;;;;;;;;;;;25.30;47.80;;;;;;1555987;74;1745;-50
2023/07/21 10:56:07;;;;;;;;;;;25.20;47.80;;;;;;1561966;74;1465;-49
2023/07/21 10:58:07;;;;;;;;;;;25.20;48.10;;;;;;1554983;74;1666;-48
2023/07/21 11:00:11;;;;;;;;;;;25.20;48.40;;;;;;1550005;74;1478;-51
2023/07/21 11:02:13;;;;;;;;;;;25.10;48.10;;;;;;1555971;76;1502;-50
2023/07/21 11:04:15;;;;;;;;;;;25.20;47.80;;;;;;1553003;76;1473;-50
2023/07/21 11:06:17;;;;;;;;;;;25.10;47.70;;;;;;1552544;74;1505;-49
2023/07/21 11:08:29;;;;;;;;;;;25.10;47.60;;;;;;1559396;74;1657;-49
2023/07/21 11:10:32;;;;;;;;;;;25.10;47.10;;;;;;1555174;76;1438;-50
2023/07/21 11:12:34;;;;;;;;;;;25.10;46.90;;;;;;1553188;74;1954;-49
2023/07/21 11:14:36;;;;;;;;;;;25.10;46.30;;;;;;1541292;74;1476;-49
2023/07/21 11:16:44;;;;;;;;;;;25.20;46.10;;;;;;1525701;76;1502;-50
2023/07/21 11:18:46;;;;;;;;;;;25.20;45.60;;;;;;1557026;76;1466;-50
2023/07/21 11:20:52;;;;;;;;;;;25.20;45.30;;;;;;1546217;74;1466;-49
2023/07/21 11:22:53;;;;;;;;;;;25.10;44.90;;;;;;1550876;74;1089;-50
2023/07/21 11:25:11;;;;;;;;;;;25.20;44.40;;;;;;1554683;74;1485;-50
2023/07/21 11:27:13;;;;;;;;;;;25.20;44.50;;;;;;1547681;76;1495;-49
2023/07/21 11:29:18;;;;;;;;;;;25.30;44.50;;;;;;1523480;77;1501;-51
2023/07/21 11:31:20;;;;;;;;;;;25.20;44.20;;;;;;1538360;75;1417;-50
2023/07/21 11:33:23;;;;;;;;;;;25.30;44.00;;;;;;1538740;76;1069;-49
2023/07/21 11:35:32;;;;;;;;;;;25.30;44.00;;;;;;1530521;75;1501;-48
2023/07/21 11:37:42;;;;;;;;;;;25.30;43.80;;;;;;1547170;76;1472;-50
2023/07/21 11:39:44;;;;;;;;;;;25.40;43.40;;;;;;1538634;75;1147;-49
2023/07/21 11:41:49;;;;;;;;;;;25.30;42.70;;;;;;1522046;76;1185;-49
2023/07/21 11:43:51;;;;;;;;;;;25.30;42.50;;;;;;1550337;75;1120;-49
2023/07/21 11:45:54;;;;;;;;;;;25.30;42.50;;;;;;1534528;76;1087;-49
2023/07/21 11:47:55;;;;;;;;;;;25.20;42.60;;;;;;1533878;76;1070;-50
2023/07/21 11:49:57;;;;;;;;;;;25.20;42.80;;;;;;1535554;75;1453;-48
2023/07/21 11:52:02;;;;;;;;;;;25.30;42.80;;;;;;1541419;76;1962;-50
2023/07/21 11:54:03;;;;;;;;;;;25.30;42.50;;;;;;1548903;76;1649;-48
2023/07/21 11:56:05;;;;;;;;;;;25.30;42.60;;;;;;1543892;75;975;-50
2023/07/21 11:58:07;;;;;;;;;;;25.30;42.20;;;;;;1533003;75;1494;-50
2023/07/21 12:00:11;;;;;;;;;;;25.30;41.70;;;;;;1541097;75;1171;-49
2023/07/21 12:02:14;;;;;;;;;;;25.30;42.00;;;;;;1539119;75;1630;-50
2023/07/21 12:04:17;;;;;;;;;;;25.30;42.10;;;;;;1541454;75;1356;-50
2023/07/21 12:06:19;;;;;;;;;;;25.30;42.20;;;;;;1530553;76;1106;-48
2023/07/21 12:08:21;;;;;;;;;;;25.30;42.30;;;;;;1538626;76;1464;-50